createdAt,value
2022-10-23T00:01:16.205Z,100.00
2022-10-23T00:03:43.890Z,100.00
2022-10-23T00:06:13.654Z,100.00
2022-10-23T00:08:41.694Z,100.00
2022-10-23T00:11:09.621Z,100.00
2022-10-23T00:13:37.392Z,100.00
2022-10-23T00:16:05.635Z,100.00
2022-10-23T00:18:33.232Z,100.00
2022-10-23T00:21:00.839Z,100.00
2022-10-23T00:23:29.774Z,100.00
2022-10-23T00:25:57.399Z,100.00
2022-10-23T00:28:25.023Z,100.00
2022-10-23T00:30:52.600Z,100.00
2022-10-23T00:33:20.174Z,100.00
2022-10-23T00:35:47.758Z,100.00
2022-10-23T00:38:15.310Z,100.00
2022-10-23T00:40:45.232Z,100.00
2022-10-23T00:43:18.986Z,100.00
2022-10-23T00:45:47.004Z,100.00
2022-10-23T00:48:14.820Z,100.00
2022-10-23T00:50:42.765Z,100.00
2022-10-23T00:53:11.695Z,100.00
2022-10-23T00:55:41.127Z,100.00
2022-10-23T00:58:10.218Z,100.00
2022-10-23T01:00:44.718Z,100.00
2022-10-23T01:03:12.540Z,100.00
2022-10-23T01:08:25.561Z,100.00
2022-10-23T01:10:59.562Z,100.00
2022-10-23T01:13:36.878Z,100.00
2022-10-23T01:16:10.355Z,100.00
2022-10-23T01:18:41.710Z,100.00
2022-10-23T01:21:15.467Z,100.00
2022-10-23T01:24:09.638Z,100.00
2022-10-23T01:26:48.273Z,100.00
2022-10-23T01:29:21.276Z,100.00
2022-10-23T01:31:52.993Z,100.00
2022-10-23T01:34:24.188Z,100.00
2022-10-23T01:36:53.508Z,100.00
2022-10-23T01:39:24.356Z,100.00
2022-10-23T01:41:56.036Z,100.00
2022-10-23T01:44:28.966Z,100.00
2022-10-23T01:46:58.548Z,100.00
2022-10-23T01:49:26.966Z,100.00
2022-10-23T01:51:57.331Z,100.00
2022-10-23T01:54:28.083Z,100.00
2022-10-23T01:56:57.020Z,100.00
2022-10-23T01:59:29.798Z,100.00
2022-10-23T02:01:59.864Z,100.00
2022-10-23T02:04:32.149Z,100.00
2022-10-23T02:07:00.644Z,100.00
2022-10-23T02:09:33.114Z,100.00
2022-10-23T02:12:05.646Z,100.00
2022-10-23T02:14:42.335Z,100.00
2022-10-23T02:17:16.041Z,100.00
2022-10-23T02:19:48.949Z,100.00
2022-10-23T02:22:21.880Z,100.00
2022-10-23T02:24:53.980Z,100.00
2022-10-23T02:27:25.659Z,100.00
2022-10-23T02:29:57.535Z,100.00
2022-10-23T02:32:28.418Z,100.00
2022-10-23T02:34:56.495Z,100.00
2022-10-23T02:37:25.357Z,100.00
2022-10-23T02:39:53.809Z,100.00
2022-10-23T02:42:24.975Z,100.00
2022-10-23T02:45:05.119Z,100.00
2022-10-23T02:47:45.945Z,100.00
2022-10-23T02:50:19.263Z,100.00
2022-10-23T02:52:51.295Z,100.00
2022-10-23T02:55:25.257Z,100.00
2022-10-23T02:57:56.158Z,100.00
2022-10-23T03:00:25.741Z,100.00
2022-10-23T03:02:57.742Z,100.00
2022-10-23T03:05:27.827Z,100.00
2022-10-23T03:07:55.825Z,100.00
2022-10-23T03:10:23.666Z,100.00
2022-10-23T03:12:51.269Z,100.00
2022-10-23T03:15:19.300Z,100.00
2022-10-23T03:17:48.232Z,100.00
2022-10-23T03:20:15.887Z,100.00
2022-10-23T03:22:43.893Z,100.00
2022-10-23T03:25:11.678Z,100.00
2022-10-23T03:27:39.437Z,100.00
2022-10-23T03:30:08.361Z,100.00
2022-10-23T03:32:36.012Z,100.00
2022-10-23T03:35:05.623Z,100.00
2022-10-23T03:37:33.106Z,100.00
2022-10-23T03:40:00.660Z,100.00
2022-10-23T03:42:28.238Z,100.00
2022-10-23T03:44:55.756Z,100.00
2022-10-23T03:47:23.305Z,100.00
2022-10-23T03:49:50.837Z,100.00
2022-10-23T03:52:19.846Z,100.00
2022-10-23T03:54:47.424Z,100.00
2022-10-23T03:57:14.955Z,100.00
2022-10-23T03:59:42.483Z,100.00
2022-10-23T04:02:10.097Z,100.00
2022-10-23T04:04:37.671Z,100.00
2022-10-23T04:07:05.202Z,100.00
2022-10-23T04:09:34.155Z,100.00
2022-10-23T04:12:01.676Z,100.00
2022-10-23T04:14:29.305Z,100.00
2022-10-23T04:16:56.828Z,100.00
2022-10-23T04:19:24.360Z,100.00
2022-10-23T04:21:51.901Z,100.00
2022-10-23T04:24:19.461Z,100.00
2022-10-23T04:26:48.308Z,100.00
2022-10-23T04:29:15.898Z,100.00
2022-10-23T04:31:43.449Z,100.00
2022-10-23T04:34:11.033Z,100.00
2022-10-23T04:36:38.595Z,100.00
2022-10-23T04:39:06.110Z,100.00
2022-10-23T04:41:33.793Z,100.00
2022-10-23T04:44:02.759Z,100.00
2022-10-23T04:46:30.289Z,100.00
2022-10-23T04:48:57.797Z,100.00
2022-10-23T04:51:25.307Z,100.00
2022-10-23T04:53:52.872Z,100.00
2022-10-23T04:56:20.412Z,100.00
2022-10-23T04:58:47.932Z,100.00
2022-10-23T05:01:17.053Z,100.00
2022-10-23T05:03:45.083Z,100.00
2022-10-23T05:06:12.704Z,100.00
2022-10-23T05:08:40.278Z,100.00
2022-10-23T05:11:07.837Z,100.00
2022-10-23T05:13:35.442Z,100.00
2022-10-23T05:16:02.956Z,100.00
2022-10-23T05:18:34.138Z,100.00
2022-10-23T05:21:04.328Z,100.00
2022-10-23T05:23:33.165Z,100.00
2022-10-23T05:26:03.141Z,100.00
2022-10-23T05:28:30.726Z,100.00
2022-10-23T05:30:59.839Z,100.00
2022-10-23T05:33:27.600Z,100.00
2022-10-23T05:35:56.630Z,100.00
2022-10-23T05:38:24.451Z,100.00
2022-10-23T05:40:52.321Z,100.00
2022-10-23T05:43:19.853Z,100.00
2022-10-23T05:45:48.053Z,100.00
2022-10-23T05:48:22.852Z,100.00
2022-10-23T05:51:05.553Z,100.00
2022-10-23T05:53:33.593Z,100.00
2022-10-23T05:56:07.016Z,100.00
2022-10-23T05:58:34.920Z,100.00
2022-10-23T06:01:06.308Z,100.00
2022-10-23T06:03:34.350Z,100.00
2022-10-23T06:06:01.904Z,100.00
2022-10-23T06:08:30.973Z,100.00
2022-10-23T06:10:58.588Z,100.00
2022-10-23T06:13:26.199Z,100.00
2022-10-23T06:15:53.809Z,100.00
2022-10-23T06:18:21.393Z,100.00
2022-10-23T06:20:48.986Z,100.00
2022-10-23T06:23:16.548Z,100.00
2022-10-23T06:25:53.470Z,100.00
2022-10-23T06:28:21.041Z,100.00
2022-10-23T06:30:48.702Z,100.00
2022-10-23T06:33:16.266Z,100.00
2022-10-23T06:35:44.017Z,100.00
2022-10-23T06:38:11.630Z,100.00
2022-10-23T06:40:39.459Z,100.00
2022-10-23T06:43:08.915Z,100.00
2022-10-23T06:45:36.479Z,100.00
2022-10-23T06:48:04.286Z,100.00
2022-10-23T06:50:32.048Z,100.00
2022-10-23T06:52:59.623Z,100.00
2022-10-23T06:55:27.315Z,100.00
2022-10-23T06:57:54.861Z,100.00
2022-10-23T07:00:24.005Z,100.00
2022-10-23T07:02:52.311Z,100.00
2022-10-23T07:05:20.972Z,100.00
2022-10-23T07:07:48.562Z,100.00
2022-10-23T07:10:16.223Z,100.00
2022-10-23T07:12:44.309Z,100.00
2022-10-23T07:15:12.159Z,100.00
2022-10-23T07:17:41.081Z,100.00
2022-10-23T07:20:09.370Z,100.00
2022-10-23T07:22:38.384Z,100.00
2022-10-23T07:25:06.918Z,100.00
2022-10-23T07:27:37.613Z,100.00
2022-10-23T07:30:05.803Z,100.00
2022-10-23T07:32:33.346Z,100.00
2022-10-23T07:35:02.691Z,100.00
2022-10-23T07:37:30.821Z,100.00
2022-10-23T07:39:58.397Z,100.00
2022-10-23T07:42:26.076Z,100.00
2022-10-23T07:44:53.645Z,100.00
2022-10-23T07:47:21.203Z,100.00
2022-10-23T07:49:48.970Z,100.00
2022-10-23T07:52:18.976Z,100.00
2022-10-23T07:54:46.481Z,100.00
2022-10-23T07:57:14.086Z,100.00
2022-10-23T07:59:41.629Z,100.00
2022-10-23T08:02:12.112Z,100.00
2022-10-23T08:04:39.762Z,100.00
2022-10-23T08:07:07.488Z,100.00
2022-10-23T08:09:37.978Z,100.00
2022-10-23T08:12:05.850Z,100.00
2022-10-23T08:14:33.387Z,100.00
2022-10-23T08:19:33.471Z,100.00
2022-10-23T08:22:01.015Z,100.00
2022-10-23T08:24:28.549Z,100.00
2022-10-23T08:26:58.547Z,100.00
2022-10-23T08:29:26.179Z,100.00
2022-10-23T08:31:55.860Z,100.00
2022-10-23T08:34:23.425Z,100.00
2022-10-23T08:36:50.996Z,100.00
2022-10-23T08:39:18.623Z,100.00
2022-10-23T08:41:50.472Z,100.00
2022-10-23T08:44:24.195Z,100.00
2022-10-23T08:46:56.049Z,100.00
2022-10-23T08:49:40.652Z,100.00
2022-10-23T08:52:15.457Z,100.00
2022-10-23T08:54:50.763Z,100.00
2022-10-23T08:57:18.958Z,100.00
2022-10-23T08:59:50.494Z,100.00
2022-10-23T09:02:22.538Z,100.00
2022-10-23T09:04:51.835Z,100.00
2022-10-23T09:07:26.468Z,100.00
2022-10-23T09:10:05.323Z,100.00
2022-10-23T09:12:33.005Z,100.00
2022-10-23T09:15:11.798Z,100.00
2022-10-23T09:17:41.336Z,100.00
2022-10-23T09:20:15.691Z,100.00
2022-10-23T09:22:44.396Z,100.00
2022-10-23T09:25:16.655Z,100.00
2022-10-23T09:27:49.634Z,100.00
2022-10-23T09:30:33.679Z,100.00
2022-10-23T09:33:02.160Z,100.00
2022-10-23T09:35:31.189Z,100.00
2022-10-23T09:37:58.715Z,100.00
2022-10-23T09:40:33.270Z,100.00
2022-10-23T09:43:03.781Z,100.00
2022-10-23T09:45:34.073Z,100.00
2022-10-23T09:48:14.612Z,100.00
2022-10-23T09:50:50.429Z,100.00
2022-10-23T09:53:20.162Z,100.00
2022-10-23T09:55:53.108Z,100.00
2022-10-23T09:58:22.313Z,100.00
2022-10-23T10:00:53.521Z,100.00
2022-10-23T10:03:24.413Z,100.00
2022-10-23T10:05:57.168Z,100.00
2022-10-23T10:08:29.926Z,100.00
2022-10-23T10:11:02.535Z,100.00
2022-10-23T10:13:44.569Z,100.00
2022-10-23T10:16:17.884Z,100.00
2022-10-23T10:18:51.994Z,100.00
2022-10-23T10:21:22.541Z,100.00
2022-10-23T10:23:55.832Z,100.00
2022-10-23T10:26:31.558Z,100.00
2022-10-23T10:29:12.085Z,100.00
2022-10-23T10:31:53.108Z,100.00
2022-10-23T10:34:26.906Z,100.00
2022-10-23T10:36:57.056Z,100.00
2022-10-23T10:39:39.602Z,100.00
2022-10-23T10:42:18.176Z,100.00
2022-10-23T10:44:52.804Z,100.00
2022-10-23T10:47:24.231Z,100.00
2022-10-23T10:49:59.509Z,100.00
2022-10-23T10:52:31.762Z,100.00
2022-10-23T10:55:04.176Z,100.00
2022-10-23T10:57:33.963Z,100.00
2022-10-23T11:00:04.943Z,100.00
2022-10-23T11:02:37.072Z,100.00
2022-10-23T11:05:14.971Z,100.00
2022-10-23T11:07:53.372Z,100.00
2022-10-23T11:10:21.068Z,100.00
2022-10-23T11:12:49.469Z,100.00
2022-10-23T11:15:19.331Z,100.00
2022-10-23T11:17:50.153Z,100.00
2022-10-23T11:20:26.613Z,100.00
2022-10-23T11:22:59.064Z,100.00
2022-10-23T11:25:48.114Z,100.00
2022-10-23T11:28:24.564Z,100.00
2022-10-23T11:31:07.057Z,100.00
2022-10-23T11:34:03.079Z,100.00
2022-10-23T11:36:42.567Z,100.00
2022-10-23T11:39:21.797Z,100.00
2022-10-23T11:41:52.173Z,100.00
2022-10-23T11:44:40.933Z,100.00
2022-10-23T11:47:38.888Z,100.00
2022-10-23T11:50:27.982Z,100.00
2022-10-23T11:53:17.102Z,100.00
2022-10-23T11:55:59.032Z,100.00
2022-10-23T11:58:31.730Z,100.00
2022-10-23T12:01:03.976Z,100.00
2022-10-23T12:03:41.835Z,100.00
2022-10-23T12:06:23.143Z,100.00
2022-10-23T12:08:56.257Z,100.00
2022-10-23T12:11:27.768Z,100.00
2022-10-23T12:13:55.501Z,100.00
2022-10-23T12:16:23.394Z,100.00
2022-10-23T12:18:53.055Z,100.00
2022-10-23T12:21:27.942Z,100.00
2022-10-23T12:24:10.466Z,100.00
2022-10-23T12:26:49.006Z,100.00
2022-10-23T12:29:25.849Z,99.91
2022-10-23T12:31:58.306Z,97.49
2022-10-23T12:34:35.764Z,96.34
2022-10-23T12:37:26.708Z,96.96
2022-10-23T12:39:56.070Z,96.94
2022-10-23T12:42:25.477Z,97.07
2022-10-23T12:45:00.338Z,98.39
2022-10-23T12:47:28.187Z,96.78
2022-10-23T12:49:55.776Z,96.53
2022-10-23T12:52:25.573Z,95.89
2022-10-23T12:54:53.135Z,96.37
2022-10-23T12:57:22.882Z,97.21
2022-10-23T12:59:51.704Z,97.13
2022-10-23T13:02:29.804Z,97.77
2022-10-23T13:04:59.652Z,98.12
2022-10-23T13:07:30.854Z,97.75
2022-10-23T13:09:59.176Z,97.38
2022-10-23T13:12:28.471Z,97.41
2022-10-23T13:14:58.809Z,98.94
2022-10-23T13:17:36.124Z,98.09
2022-10-23T13:20:11.640Z,98.58
2022-10-23T13:22:41.665Z,98.55
2022-10-23T13:25:24.057Z,98.81
2022-10-23T13:27:51.696Z,98.97
2022-10-23T13:30:29.940Z,98.92
2022-10-23T13:32:57.494Z,98.58
2022-10-23T13:35:25.382Z,98.33
2022-10-23T13:37:54.244Z,99.31
2022-10-23T13:40:24.911Z,98.67
2022-10-23T13:42:53.068Z,98.39
2022-10-23T13:45:23.041Z,99.58
2022-10-23T13:47:50.928Z,99.26
2022-10-23T13:50:19.255Z,97.90
2022-10-23T13:52:46.814Z,98.48
2022-10-23T13:55:20.611Z,99.22
2022-10-23T13:57:48.194Z,99.82
2022-10-23T14:00:16.641Z,99.90
2022-10-23T14:02:44.419Z,100.00
2022-10-23T14:05:13.141Z,100.00
2022-10-23T14:07:40.775Z,100.00
2022-10-23T14:10:08.974Z,100.00
2022-10-23T14:12:41.967Z,100.00
2022-10-23T14:15:11.367Z,100.00
2022-10-23T14:17:39.125Z,100.00
2022-10-23T14:20:08.008Z,100.00
2022-10-23T14:22:35.655Z,100.00
2022-10-23T14:25:03.232Z,100.00
2022-10-23T14:27:31.202Z,100.00
2022-10-23T14:30:00.344Z,100.00
2022-10-23T14:32:27.893Z,100.00
2022-10-23T14:34:55.631Z,100.00
2022-10-23T14:37:23.254Z,100.00
2022-10-23T14:39:51.006Z,100.00
2022-10-23T14:42:19.024Z,100.00
2022-10-23T14:44:46.687Z,100.00
2022-10-23T14:47:15.763Z,100.00
2022-10-23T14:49:43.730Z,100.00
2022-10-23T14:52:11.209Z,100.00
2022-10-23T14:54:38.723Z,100.00
2022-10-23T14:57:06.246Z,100.00
2022-10-23T14:59:33.819Z,100.00
2022-10-23T15:02:01.444Z,100.00
2022-10-23T15:04:30.941Z,100.00
2022-10-23T15:06:59.012Z,100.00
2022-10-23T15:09:27.114Z,100.00
2022-10-23T15:11:55.306Z,100.00
2022-10-23T15:14:23.508Z,100.00
2022-10-23T15:16:51.934Z,100.00
2022-10-23T15:19:20.101Z,100.00
2022-10-23T15:21:49.520Z,100.00
2022-10-23T15:24:18.725Z,100.00
2022-10-23T15:26:46.569Z,100.00
2022-10-23T15:29:15.121Z,100.00
2022-10-23T15:31:48.280Z,100.00
2022-10-23T15:34:18.568Z,100.00
2022-10-23T15:36:47.789Z,100.00
2022-10-23T15:39:19.320Z,100.00
2022-10-23T15:41:47.165Z,100.00
2022-10-23T15:44:16.379Z,100.00
2022-10-23T15:46:44.093Z,100.00
2022-10-23T15:49:11.688Z,100.00
2022-10-23T15:51:40.104Z,100.00
2022-10-23T15:54:09.243Z,100.00
2022-10-23T15:56:38.267Z,100.00
2022-10-23T15:59:05.920Z,100.00
2022-10-23T16:01:33.567Z,100.00
2022-10-23T16:04:01.116Z,100.00
2022-10-23T16:06:28.698Z,100.00
2022-10-23T16:08:56.272Z,100.00
2022-10-23T16:11:25.501Z,100.00
2022-10-23T16:13:54.931Z,100.00
2022-10-23T16:16:22.505Z,100.00
2022-10-23T16:18:50.391Z,100.00
2022-10-23T16:21:20.138Z,100.00
2022-10-23T16:23:47.965Z,100.00
2022-10-23T16:26:15.685Z,100.00
2022-10-23T16:28:44.832Z,100.00
2022-10-23T16:31:19.290Z,100.00
2022-10-23T16:33:48.427Z,100.00
2022-10-23T16:36:16.340Z,100.00
2022-10-23T16:38:44.120Z,100.00
2022-10-23T16:41:11.703Z,100.00
2022-10-23T16:43:39.301Z,100.00
2022-10-23T16:46:08.772Z,100.00
2022-10-23T16:48:37.598Z,100.00
2022-10-23T16:51:07.267Z,100.00
2022-10-23T16:53:34.901Z,100.00
2022-10-23T16:56:04.850Z,100.00
2022-10-23T16:58:32.757Z,100.00
2022-10-23T17:01:01.661Z,100.00
2022-10-23T17:03:29.417Z,100.00
2022-10-23T17:06:02.304Z,100.00
2022-10-23T17:08:30.581Z,100.00
2022-10-23T17:11:06.520Z,100.00
2022-10-23T17:13:34.347Z,100.00
2022-10-23T17:16:07.360Z,100.00
2022-10-23T17:18:37.655Z,100.00
2022-10-23T17:21:11.012Z,100.00
2022-10-23T17:23:38.889Z,100.00
2022-10-23T17:26:08.040Z,100.00
2022-10-23T17:28:39.798Z,100.00
2022-10-23T17:31:13.373Z,100.00
2022-10-23T17:33:41.374Z,100.00
2022-10-23T17:36:11.156Z,100.00
2022-10-23T17:38:39.076Z,100.00
2022-10-23T17:41:07.800Z,100.00
2022-10-23T17:43:36.065Z,100.00
2022-10-23T17:46:04.442Z,100.00
2022-10-23T17:48:32.469Z,100.00
2022-10-23T17:51:04.782Z,100.00
2022-10-23T17:53:34.777Z,100.00
2022-10-23T17:56:03.235Z,100.00
2022-10-23T17:58:31.152Z,100.00
2022-10-23T18:00:58.970Z,100.00
2022-10-23T18:03:26.978Z,100.00
2022-10-23T18:05:54.599Z,100.00
2022-10-23T18:08:22.276Z,100.00
2022-10-23T18:10:51.260Z,100.00
2022-10-23T18:13:18.782Z,100.00
2022-10-23T18:15:46.882Z,100.00
2022-10-23T18:18:14.411Z,100.00
2022-10-23T18:20:42.195Z,100.00
2022-10-23T18:23:09.975Z,100.00
2022-10-23T18:25:43.063Z,100.00
2022-10-23T18:28:11.923Z,100.00
2022-10-23T18:30:39.561Z,100.00
2022-10-23T18:33:07.152Z,100.00
2022-10-23T18:35:35.686Z,100.00
2022-10-23T18:38:04.960Z,100.00
2022-10-23T18:40:33.163Z,100.00
2022-10-23T18:43:01.461Z,100.00
2022-10-23T18:45:30.453Z,100.00
2022-10-23T18:47:58.177Z,100.00
2022-10-23T18:50:26.284Z,100.00
2022-10-23T18:52:55.589Z,100.00
2022-10-23T18:55:23.224Z,100.00
2022-10-23T18:57:50.849Z,100.00
2022-10-23T19:00:18.600Z,100.00
2022-10-23T19:02:51.978Z,100.00
2022-10-23T19:05:20.261Z,100.00
2022-10-23T19:07:48.683Z,100.00
2022-10-23T19:10:19.317Z,100.00
2022-10-23T19:12:47.107Z,100.00
2022-10-23T19:15:14.921Z,100.00
2022-10-23T19:17:42.609Z,100.00
2022-10-23T19:20:14.714Z,100.00
2022-10-23T19:22:44.781Z,100.00
2022-10-23T19:25:15.109Z,100.00
2022-10-23T19:27:44.236Z,100.00
2022-10-23T19:30:13.621Z,100.00
2022-10-23T19:32:41.973Z,100.00
2022-10-23T19:35:12.202Z,100.00
2022-10-23T19:37:39.771Z,100.00
2022-10-23T19:40:08.869Z,100.00
2022-10-23T19:42:37.253Z,100.00
2022-10-23T19:45:05.865Z,100.00
2022-10-23T19:47:33.421Z,100.00
2022-10-23T19:50:01.025Z,100.00
2022-10-23T19:52:30.261Z,100.00
2022-10-23T19:54:57.883Z,100.00
2022-10-23T19:57:25.484Z,100.00
2022-10-23T19:59:53.694Z,100.00
2022-10-23T20:02:21.725Z,100.00
2022-10-23T20:04:49.368Z,100.00
2022-10-23T20:07:17.016Z,100.00
2022-10-23T20:09:45.934Z,100.00
2022-10-23T20:12:13.533Z,100.00
2022-10-23T20:14:41.702Z,100.00
2022-10-23T20:17:09.534Z,100.00
2022-10-23T20:19:38.505Z,100.00
2022-10-23T20:22:06.127Z,100.00
2022-10-23T20:24:33.760Z,100.00
2022-10-23T20:27:02.745Z,100.00
2022-10-23T20:29:30.401Z,100.00
2022-10-23T20:31:57.951Z,100.00
2022-10-23T20:34:25.517Z,100.00
2022-10-23T20:36:53.094Z,100.00
2022-10-23T20:39:24.460Z,100.00
2022-10-23T20:41:52.159Z,100.00
2022-10-23T20:44:21.071Z,100.00
2022-10-23T20:46:48.734Z,100.00
2022-10-23T20:49:16.851Z,100.00
2022-10-23T20:51:44.882Z,100.00
2022-10-23T20:54:12.679Z,100.00
2022-10-23T20:56:40.811Z,100.00
2022-10-23T20:59:10.578Z,100.00
2022-10-23T21:01:42.234Z,100.00
2022-10-23T21:04:12.341Z,100.00
2022-10-23T21:06:51.863Z,100.00
2022-10-23T21:09:25.864Z,100.00
2022-10-23T21:11:53.456Z,100.00
2022-10-23T21:14:21.008Z,100.00
2022-10-23T21:16:49.962Z,100.00
2022-10-23T21:19:17.622Z,100.00
2022-10-23T21:21:45.288Z,100.00
2022-10-23T21:24:16.616Z,100.00
2022-10-23T21:26:45.306Z,100.00
2022-10-23T21:29:20.996Z,100.00
2022-10-23T21:31:54.299Z,100.00
2022-10-23T21:34:21.873Z,100.00
2022-10-23T21:37:11.348Z,100.00
2022-10-23T21:39:37.124Z,100.00
2022-10-23T21:42:04.998Z,100.00
2022-10-23T21:44:32.535Z,100.00
2022-10-23T21:47:04.519Z,100.00
2022-10-23T21:49:32.133Z,100.00
2022-10-23T21:51:59.687Z,100.00
2022-10-23T21:54:27.250Z,100.00
2022-10-23T21:56:54.875Z,100.00
2022-10-23T21:59:24.784Z,100.00
2022-10-23T22:01:53.523Z,100.00
2022-10-23T22:04:23.653Z,100.00
2022-10-23T22:06:51.321Z,100.00
2022-10-23T22:09:20.675Z,100.00
2022-10-23T22:11:49.724Z,100.00
2022-10-23T22:14:17.434Z,100.00
2022-10-23T22:16:45.075Z,100.00
2022-10-23T22:19:13.989Z,100.00
2022-10-23T22:21:43.610Z,100.00
2022-10-23T22:24:11.767Z,100.00
2022-10-23T22:26:40.598Z,100.00
2022-10-23T22:29:09.498Z,100.00
2022-10-23T22:31:37.807Z,100.00
2022-10-23T22:34:18.605Z,100.00
2022-10-23T22:36:56.263Z,100.00
2022-10-23T22:39:24.399Z,100.00
2022-10-23T22:41:52.254Z,100.00
2022-10-23T22:44:19.947Z,100.00
2022-10-23T22:46:47.869Z,100.00
2022-10-23T22:49:15.715Z,100.00
2022-10-23T22:51:43.476Z,100.00
2022-10-23T22:54:12.565Z,100.00
2022-10-23T22:56:40.255Z,100.00
2022-10-23T22:59:07.879Z,100.00
2022-10-23T23:01:37.470Z,100.00
2022-10-23T23:04:13.881Z,100.00
2022-10-23T23:06:53.486Z,100.00
2022-10-23T23:09:22.438Z,100.00
2022-10-23T23:11:51.652Z,100.00
2022-10-23T23:14:23.229Z,100.00
2022-10-23T23:16:52.517Z,100.00
2022-10-23T23:19:20.327Z,100.00
2022-10-23T23:21:47.960Z,100.00
2022-10-23T23:24:15.521Z,100.00
2022-10-23T23:26:44.429Z,100.00
2022-10-23T23:29:12.605Z,100.00
2022-10-23T23:31:40.247Z,100.00
2022-10-23T23:34:07.784Z,100.00
2022-10-23T23:36:35.659Z,100.00
2022-10-23T23:41:31.882Z,100.00
2022-10-23T23:44:00.806Z,100.00
2022-10-23T23:46:28.456Z,100.00
2022-10-23T23:48:56.079Z,100.00
2022-10-23T23:51:25.972Z,100.00
2022-10-23T23:53:54.041Z,100.00
2022-10-23T23:56:22.235Z,100.00
2022-10-23T23:58:49.880Z,100.00
